createdAt,value
2023-02-17T00:00:30.346Z,1.10
2023-02-17T00:05:32.133Z,1.10
2023-02-17T00:10:33.915Z,1.20
2023-02-17T00:15:37.955Z,1.20
2023-02-17T00:20:40.061Z,1.20
2023-02-17T00:25:42.283Z,1.20
2023-02-17T00:30:44.050Z,1.20
2023-02-17T00:35:45.780Z,1.20
2023-02-17T00:40:47.625Z,1.20
2023-02-17T00:45:49.615Z,1.30
2023-02-17T00:50:51.456Z,1.20
2023-02-17T00:55:53.305Z,1.30
2023-02-17T01:00:58.736Z,1.30
2023-02-17T01:06:05.521Z,1.30
2023-02-17T01:11:07.471Z,1.30
2023-02-17T01:16:21.327Z,1.30
2023-02-17T01:21:25.934Z,1.40
2023-02-17T01:26:29.650Z,1.40
2023-02-17T01:31:31.512Z,1.30
2023-02-17T01:36:33.822Z,1.40
2023-02-17T01:41:36.668Z,1.40
2023-02-17T01:46:39.946Z,1.40
2023-02-17T01:51:42.769Z,1.40
2023-02-17T01:56:48.493Z,1.40
2023-02-17T02:01:54.100Z,1.40
2023-02-17T02:06:56.314Z,1.40
2023-02-17T02:12:00.009Z,1.40
2023-02-17T02:17:18.899Z,1.40
2023-02-17T02:22:44.705Z,1.50
2023-02-17T02:28:17.344Z,1.50
2023-02-17T02:33:38.939Z,1.50
2023-02-17T02:38:54.208Z,1.50
2023-02-17T02:43:56.329Z,1.50
2023-02-17T02:48:58.349Z,1.50
2023-02-17T02:54:22.823Z,1.50
2023-02-17T02:59:43.326Z,1.50
2023-02-17T03:05:15.515Z,1.50
2023-02-17T03:10:17.558Z,1.50
2023-02-17T03:15:30.634Z,1.60
2023-02-17T03:20:43.830Z,1.60
2023-02-17T03:25:45.939Z,1.60
2023-02-17T03:30:47.765Z,1.60
2023-02-17T03:35:49.603Z,1.70
2023-02-17T03:40:53.321Z,1.60
2023-02-17T03:45:55.132Z,1.60
2023-02-17T03:50:57.004Z,1.70
2023-02-17T03:55:58.865Z,1.70
2023-02-17T04:01:01.003Z,1.70
2023-02-17T04:06:03.661Z,1.70
2023-02-17T04:11:07.346Z,1.70
2023-02-17T04:16:10.140Z,1.70
2023-02-17T04:21:11.937Z,1.70
2023-02-17T04:26:13.975Z,1.70
2023-02-17T04:31:15.864Z,1.70
2023-02-17T04:36:17.630Z,1.70
2023-02-17T04:41:19.475Z,1.70
2023-02-17T04:46:21.341Z,1.80
2023-02-17T04:51:23.257Z,1.80
2023-02-17T04:56:25.115Z,1.80
2023-02-17T05:01:26.935Z,1.80
2023-02-17T05:06:28.768Z,1.80
2023-02-17T05:11:31.535Z,1.90
2023-02-17T05:16:33.279Z,1.90
2023-02-17T05:21:35.045Z,1.90
2023-02-17T05:26:37.096Z,1.80
2023-02-17T05:31:40.086Z,1.90
2023-02-17T05:36:42.015Z,1.90
2023-02-17T05:41:43.771Z,1.90
2023-02-17T05:46:45.608Z,1.90
2023-02-17T05:51:47.386Z,1.90
2023-02-17T05:56:49.094Z,2.00
2023-02-17T06:01:50.845Z,2.00
2023-02-17T06:06:52.710Z,2.00
2023-02-17T06:11:54.553Z,2.00
2023-02-17T06:16:57.055Z,2.00
2023-02-17T06:21:58.793Z,2.00
2023-02-17T06:27:01.931Z,2.10
2023-02-17T06:32:03.961Z,2.10
2023-02-17T06:37:06.188Z,2.10
2023-02-17T06:42:07.943Z,2.10
2023-02-17T06:47:09.695Z,2.10
2023-02-17T06:52:11.585Z,2.10
2023-02-17T06:57:13.409Z,2.10
2023-02-17T07:02:15.611Z,2.20
2023-02-17T07:07:17.538Z,2.20
2023-02-17T07:12:19.266Z,2.20
2023-02-17T07:17:21.075Z,2.20
2023-02-17T07:22:25.487Z,2.30
2023-02-17T07:27:27.464Z,2.30
2023-02-17T07:32:29.341Z,2.20
2023-02-17T07:37:31.116Z,2.20
2023-02-17T07:42:32.866Z,2.20
2023-02-17T07:47:34.638Z,2.30
2023-02-17T07:52:36.773Z,2.30
2023-02-17T07:57:38.518Z,2.30
2023-02-17T08:02:40.431Z,2.30
2023-02-17T08:07:42.137Z,2.40
2023-02-17T08:13:10.008Z,2.40
2023-02-17T08:18:12.116Z,2.50
2023-02-17T08:23:13.926Z,2.50
2023-02-17T08:28:16.065Z,2.50
2023-02-17T08:33:19.071Z,2.60
2023-02-17T08:38:20.908Z,2.60
2023-02-17T08:43:22.676Z,2.70
2023-02-17T08:48:24.454Z,2.70
2023-02-17T08:53:26.491Z,2.70
2023-02-17T08:58:28.325Z,2.70
2023-02-17T09:03:30.453Z,2.80
2023-02-17T09:08:33.005Z,2.80
2023-02-17T09:13:35.760Z,2.90
2023-02-17T09:18:37.555Z,2.90
2023-02-17T09:23:40.435Z,3.00
2023-02-17T09:28:42.889Z,3.10
2023-02-17T09:33:45.134Z,3.10
2023-02-17T09:38:47.437Z,3.10
2023-02-17T09:43:51.271Z,3.30
2023-02-17T09:48:55.852Z,3.30
2023-02-17T09:54:03.146Z,3.30
2023-02-17T09:59:22.761Z,3.40
2023-02-17T10:04:31.025Z,3.40
2023-02-17T10:09:37.684Z,3.40
2023-02-17T10:14:52.629Z,3.50
2023-02-17T10:20:05.741Z,3.60
2023-02-17T10:25:16.927Z,3.60
2023-02-17T10:30:34.775Z,3.70
2023-02-17T10:35:49.301Z,3.60
2023-02-17T10:40:54.289Z,3.70
2023-02-17T10:45:59.711Z,3.70
2023-02-17T10:51:01.990Z,3.70
2023-02-17T10:56:15.140Z,3.70
2023-02-17T11:01:17.538Z,3.70
2023-02-17T11:06:26.035Z,3.90
2023-02-17T11:11:30.850Z,3.80
2023-02-17T11:16:45.912Z,3.80
2023-02-17T11:21:47.897Z,3.70
2023-02-17T11:27:23.789Z,3.70
2023-02-17T11:32:34.484Z,3.60
2023-02-17T11:37:42.653Z,3.70
2023-02-17T11:42:44.510Z,3.70
2023-02-17T11:48:05.127Z,3.70
2023-02-17T11:53:23.316Z,3.70
2023-02-17T11:58:40.721Z,3.70
2023-02-17T12:04:18.422Z,3.60
2023-02-17T12:09:31.968Z,3.60
2023-02-17T12:14:42.821Z,3.70
2023-02-17T12:19:59.536Z,3.60
2023-02-17T12:25:33.281Z,3.60
2023-02-17T12:31:02.565Z,3.60
2023-02-17T12:36:09.212Z,3.50
2023-02-17T12:41:16.556Z,3.60
2023-02-17T12:46:35.078Z,3.60
2023-02-17T12:51:47.534Z,3.80
2023-02-17T12:57:15.446Z,3.70
2023-02-17T13:02:23.561Z,3.60
2023-02-17T13:07:59.799Z,3.50
2023-02-17T13:13:03.359Z,3.50
2023-02-17T13:18:36.516Z,3.40
2023-02-17T13:23:41.070Z,3.40
2023-02-17T13:28:42.931Z,3.40
2023-02-17T13:33:59.280Z,3.40
2023-02-17T13:39:02.007Z,3.30
2023-02-17T13:44:29.140Z,3.30
2023-02-17T13:49:34.984Z,3.20
2023-02-17T13:54:36.849Z,3.30
2023-02-17T13:59:38.557Z,3.30
2023-02-17T14:04:40.543Z,3.30
2023-02-17T14:09:42.610Z,3.20
2023-02-17T14:14:44.625Z,3.20
2023-02-17T14:19:48.780Z,3.30
2023-02-17T14:25:06.788Z,3.30
2023-02-17T14:30:27.352Z,3.20
2023-02-17T14:35:29.165Z,3.20
2023-02-17T14:40:31.136Z,3.10
2023-02-17T14:45:33.221Z,3.10
2023-02-17T14:50:36.970Z,3.00
2023-02-17T14:55:53.940Z,2.90
2023-02-17T15:00:56.121Z,3.00
2023-02-17T15:05:58.221Z,3.00
2023-02-17T15:11:00.463Z,3.00
2023-02-17T15:16:02.234Z,2.90
2023-02-17T15:21:24.270Z,2.90
2023-02-17T15:26:26.771Z,2.90
2023-02-17T15:31:32.144Z,2.80
2023-02-17T15:36:33.909Z,2.80
2023-02-17T15:41:35.888Z,2.80
2023-02-17T15:46:39.150Z,2.70
2023-02-17T15:51:40.986Z,2.70
2023-02-17T15:56:46.270Z,2.80
2023-02-17T16:01:48.014Z,2.80
2023-02-17T16:06:49.962Z,2.80
2023-02-17T16:11:54.232Z,2.80
2023-02-17T16:16:56.074Z,2.80
2023-02-17T16:21:58.201Z,2.90
2023-02-17T16:27:00.842Z,2.90
2023-02-17T16:32:03.161Z,2.90
2023-02-17T16:37:13.923Z,2.90
2023-02-17T16:42:15.951Z,2.90
2023-02-17T16:47:22.417Z,2.90
2023-02-17T16:52:27.124Z,2.90
2023-02-17T16:57:29.045Z,2.90
2023-02-17T17:02:30.801Z,2.90
2023-02-17T17:07:32.829Z,3.00
2023-02-17T17:12:34.958Z,2.90
2023-02-17T17:17:42.956Z,3.00
2023-02-17T17:22:46.665Z,2.90
2023-02-17T17:27:48.464Z,2.90
2023-02-17T17:32:50.405Z,2.90
2023-02-17T17:37:52.156Z,2.90
2023-02-17T17:42:54.409Z,2.80
2023-02-17T17:47:56.143Z,2.80
2023-02-17T17:52:58.026Z,2.90
2023-02-17T17:57:59.907Z,2.80
2023-02-17T18:03:01.763Z,2.80
2023-02-17T18:08:04.199Z,2.80
2023-02-17T18:13:08.956Z,2.80
2023-02-17T18:18:12.873Z,2.90
2023-02-17T18:23:14.609Z,2.90
2023-02-17T18:28:16.673Z,2.80
2023-02-17T18:33:18.797Z,2.80
2023-02-17T18:38:20.514Z,2.80
2023-02-17T18:43:23.429Z,2.80
2023-02-17T18:48:25.229Z,2.70
2023-02-17T18:53:27.402Z,2.70
2023-02-17T18:58:30.354Z,2.60
2023-02-17T19:03:32.246Z,2.70
2023-02-17T19:08:33.996Z,2.60
2023-02-17T19:13:36.293Z,2.60
2023-02-17T19:18:39.838Z,2.60
2023-02-17T19:23:42.084Z,2.60
2023-02-17T19:28:44.717Z,2.60
2023-02-17T19:33:47.413Z,2.50
2023-02-17T19:38:50.174Z,2.50
2023-02-17T19:43:52.074Z,2.40
2023-02-17T19:48:54.044Z,2.40
2023-02-17T19:53:58.044Z,2.30
2023-02-17T19:59:00.236Z,2.20
2023-02-17T20:04:04.352Z,2.20
2023-02-17T20:09:09.650Z,2.20
2023-02-17T20:14:12.173Z,2.10
2023-02-17T20:19:14.302Z,2.00
2023-02-17T20:24:16.072Z,1.90
2023-02-17T20:29:17.921Z,1.90
2023-02-17T20:34:38.466Z,1.90
2023-02-17T20:39:41.179Z,1.80
2023-02-17T20:44:43.162Z,1.70
2023-02-17T20:49:44.971Z,1.70
2023-02-17T20:54:46.725Z,1.70
2023-02-17T20:59:48.446Z,1.60
2023-02-17T21:04:50.474Z,1.50
2023-02-17T21:09:52.252Z,1.30
2023-02-17T21:14:54.054Z,1.20
2023-02-17T21:19:55.773Z,1.30
2023-02-17T21:24:57.710Z,1.40
2023-02-17T21:29:59.854Z,1.50
2023-02-17T21:35:01.746Z,1.60
2023-02-17T21:40:03.646Z,1.60
2023-02-17T21:45:05.876Z,1.70
2023-02-17T21:50:08.178Z,1.80
2023-02-17T21:55:10.053Z,1.80
2023-02-17T22:00:13.189Z,1.90
2023-02-17T22:05:15.016Z,2.00
2023-02-17T22:10:17.280Z,2.00
2023-02-17T22:15:19.075Z,2.20
2023-02-17T22:20:21.075Z,2.20
2023-02-17T22:25:24.396Z,2.30
2023-02-17T22:30:27.697Z,2.40
2023-02-17T22:35:29.548Z,2.40
2023-02-17T22:40:31.282Z,2.50
2023-02-17T22:45:33.216Z,2.50
2023-02-17T22:50:38.577Z,2.60
2023-02-17T22:55:40.444Z,2.70
2023-02-17T23:00:42.245Z,2.70
2023-02-17T23:05:45.391Z,2.80
2023-02-17T23:10:47.117Z,2.80
2023-02-17T23:15:49.294Z,2.90
2023-02-17T23:20:53.773Z,3.00
2023-02-17T23:25:56.228Z,3.10
2023-02-17T23:30:58.187Z,3.20
2023-02-17T23:36:02.997Z,3.30
2023-02-17T23:41:04.787Z,3.40
2023-02-17T23:46:07.078Z,3.50
2023-02-17T23:51:09.426Z,3.60
2023-02-17T23:56:21.947Z,3.70
